createdAt,value
2023-05-17T00:02:29.086Z,99590.41
2023-05-17T00:05:04.243Z,99594.16
2023-05-17T00:07:40.035Z,99602.25
2023-05-17T00:10:14.607Z,99586.88
2023-05-17T00:12:48.935Z,99595.22
2023-05-17T00:15:23.740Z,99597.72
2023-05-17T00:17:58.590Z,99596.44
2023-05-17T00:20:33.376Z,99600.50
2023-05-17T00:23:09.118Z,99598.75
2023-05-17T00:25:43.783Z,99593.69
2023-05-17T00:28:18.319Z,99597.72
2023-05-17T00:30:52.955Z,99611.31
2023-05-17T00:33:27.424Z,99602.75
2023-05-17T00:36:02.118Z,99599.72
2023-05-17T00:38:37.787Z,99597.22
2023-05-17T00:41:13.239Z,99600.72
2023-05-17T00:43:47.554Z,99594.69
2023-05-17T00:46:22.415Z,99593.38
2023-05-17T00:48:57.163Z,99591.41
2023-05-17T00:51:32.475Z,99595.44
2023-05-17T00:54:08.469Z,99588.16
2023-05-17T00:56:43.220Z,99603.53
2023-05-17T00:59:18.661Z,99601.78
2023-05-17T01:01:54.204Z,99611.87
2023-05-17T01:04:29.246Z,99608.84
2023-05-17T01:07:04.560Z,99602.28
2023-05-17T01:09:40.549Z,99605.56
2023-05-17T01:12:26.417Z,99603.53
2023-05-17T01:15:09.995Z,99583.41
2023-05-17T01:17:55.780Z,99588.19
2023-05-17T01:20:38.104Z,99585.44
2023-05-17T01:23:28.577Z,99583.44
2023-05-17T01:26:12.021Z,99605.06
2023-05-17T01:28:53.646Z,99593.50
2023-05-17T01:31:31.178Z,99594.50
2023-05-17T01:34:08.837Z,99587.44
2023-05-17T01:36:43.404Z,99580.91
2023-05-17T01:39:18.109Z,99578.88
2023-05-17T01:41:58.973Z,99579.69
2023-05-17T01:44:42.161Z,99578.44
2023-05-17T01:47:22.297Z,99585.22
2023-05-17T01:50:00.468Z,99580.19
2023-05-17T01:52:43.036Z,99583.69
2023-05-17T01:55:25.173Z,99583.97
2023-05-17T01:58:03.044Z,99585.47
2023-05-17T02:00:41.103Z,99588.47
2023-05-17T02:03:18.792Z,99607.53
2023-05-17T02:05:53.216Z,99610.59
2023-05-17T02:08:27.942Z,99593.53
2023-05-17T02:11:02.330Z,99596.78
2023-05-17T02:13:37.953Z,99598.31
2023-05-17T02:16:13.751Z,99595.78
2023-05-17T02:18:48.544Z,99598.28
2023-05-17T02:21:22.927Z,99598.97
2023-05-17T02:23:57.745Z,99601.47
2023-05-17T02:26:32.350Z,99589.16
2023-05-17T02:29:06.997Z,99600.94
2023-05-17T02:31:42.728Z,99603.94
2023-05-17T02:34:17.844Z,99609.03
2023-05-17T02:36:52.623Z,99613.03
2023-05-17T02:39:27.281Z,99615.03
2023-05-17T02:42:01.591Z,99615.69
2023-05-17T02:44:36.250Z,99626.50
2023-05-17T02:47:12.129Z,99633.88
2023-05-17T02:49:46.918Z,99639.09
2023-05-17T02:52:21.371Z,99652.41
2023-05-17T02:54:56.442Z,99647.59
2023-05-17T02:57:31.004Z,99658.00
2023-05-17T03:00:07.155Z,99662.03
2023-05-17T03:02:42.962Z,99671.03
2023-05-17T03:05:17.735Z,99672.75
2023-05-17T03:07:53.033Z,99675.00
2023-05-17T03:10:27.756Z,99673.72
2023-05-17T03:13:02.371Z,99681.97
2023-05-17T03:15:38.288Z,99675.56
2023-05-17T03:18:14.172Z,99684.03
2023-05-17T03:20:49.591Z,99684.56
2023-05-17T03:23:24.781Z,99686.44
2023-05-17T03:25:59.892Z,99678.41
2023-05-17T03:28:35.197Z,99684.34
2023-05-17T03:31:10.585Z,99689.00
2023-05-17T03:33:46.754Z,99692.31
2023-05-17T03:36:21.794Z,99690.13
2023-05-17T03:38:56.206Z,99703.53
2023-05-17T03:41:31.025Z,99704.13
2023-05-17T03:44:06.243Z,99696.56
2023-05-17T03:46:41.244Z,99700.56
2023-05-17T03:49:17.881Z,99696.81
2023-05-17T03:51:53.318Z,99710.03
2023-05-17T03:54:27.759Z,99716.94
2023-05-17T03:57:03.810Z,99718.81
2023-05-17T03:59:38.898Z,99721.88
2023-05-17T04:02:13.867Z,99721.16
2023-05-17T04:04:53.396Z,99723.09
2023-05-17T04:07:28.272Z,99723.12
2023-05-17T04:10:03.806Z,99715.62
2023-05-17T04:12:38.219Z,99716.63
2023-05-17T04:15:13.448Z,99727.88
2023-05-17T04:17:48.341Z,99731.38
2023-05-17T04:20:24.547Z,99738.91
2023-05-17T04:22:59.080Z,99727.75
2023-05-17T04:25:33.814Z,99732.69
2023-05-17T04:28:09.346Z,99737.03
2023-05-17T04:30:44.628Z,99738.06
2023-05-17T04:33:19.322Z,99752.81
2023-05-17T04:35:57.893Z,99751.88
2023-05-17T04:38:32.574Z,99769.00
2023-05-17T04:41:09.604Z,99781.31
2023-05-17T04:43:44.273Z,99785.13
2023-05-17T04:46:19.363Z,99787.56
2023-05-17T04:48:56.342Z,99787.31
2023-05-17T04:51:32.831Z,99786.09
2023-05-17T04:54:08.837Z,99781.22
2023-05-17T04:56:43.716Z,99788.91
2023-05-17T04:59:18.503Z,99792.06
2023-05-17T05:01:53.285Z,99770.69
2023-05-17T05:04:27.785Z,99785.63
2023-05-17T05:07:04.081Z,99772.69
2023-05-17T05:09:38.666Z,99779.81
2023-05-17T05:12:13.755Z,99784.38
2023-05-17T05:14:48.803Z,99792.88
2023-05-17T06:03:02.784Z,99836.84
2023-05-17T06:05:38.454Z,99836.84
2023-05-17T06:08:12.819Z,99842.00
2023-05-17T06:10:47.865Z,99844.66
2023-05-17T06:13:22.482Z,99851.47
2023-05-17T06:15:57.798Z,99866.09
2023-05-17T06:18:33.889Z,99866.22
2023-05-17T06:21:08.602Z,99873.63
2023-05-17T06:23:43.047Z,99883.88
2023-05-17T06:26:18.003Z,99877.50
2023-05-17T06:28:52.301Z,99883.81
2023-05-17T14:02:57.812Z,100209.06
2023-05-17T14:05:33.627Z,100209.06
2023-05-17T14:08:09.092Z,100218.47
2023-05-17T14:10:43.910Z,100222.00
2023-05-17T14:13:18.308Z,100214.72
2023-05-17T14:15:52.946Z,100231.41
2023-05-17T14:18:28.768Z,100221.50
2023-05-17T14:21:03.685Z,100222.09
2023-05-17T14:23:38.094Z,100235.81
2023-05-17T14:26:13.039Z,100229.41
2023-05-17T14:28:47.384Z,100233.72
2023-05-17T14:31:22.099Z,100235.03
2023-05-17T14:33:57.901Z,100242.34
2023-05-17T14:36:35.738Z,100247.59
2023-05-17T14:39:10.410Z,100244.37
2023-05-17T14:41:45.236Z,100251.00
2023-05-17T14:44:19.670Z,100248.88
2023-05-17T14:46:54.358Z,100248.75
2023-05-17T14:49:30.096Z,100250.37
2023-05-17T14:52:04.918Z,100251.56
2023-05-17T14:54:39.952Z,100253.31
2023-05-17T14:57:14.622Z,100263.03
2023-05-17T14:59:49.098Z,100250.22
2023-05-17T15:02:24.208Z,100257.41
2023-05-17T15:05:03.598Z,100263.09
2023-05-17T15:07:38.787Z,100263.22
2023-05-17T15:10:13.240Z,100261.22
2023-05-17T15:12:47.992Z,100252.75
2023-05-17T15:15:22.860Z,100247.78
2023-05-17T15:17:57.598Z,100259.88
2023-05-17T15:20:33.552Z,100260.56
2023-05-17T15:23:08.337Z,100261.16
2023-05-17T15:25:43.024Z,100261.44
2023-05-17T15:28:20.038Z,100270.84
2023-05-17T15:31:01.909Z,100261.59
2023-05-17T15:33:36.725Z,100255.47
2023-05-17T15:36:13.311Z,100275.25
2023-05-17T15:38:48.452Z,100275.00
2023-05-17T15:41:29.804Z,100281.91
2023-05-17T15:44:05.641Z,100288.94
2023-05-17T15:46:40.076Z,100287.81
2023-05-17T15:49:14.835Z,100291.22
2023-05-17T15:51:50.775Z,100286.56
2023-05-17T15:54:25.488Z,100291.44
2023-05-17T15:57:00.079Z,100298.75
2023-05-17T15:59:34.944Z,100290.28
2023-05-17T16:02:09.416Z,100288.94
2023-05-17T16:04:44.125Z,100294.09
2023-05-17T16:07:19.890Z,100291.25
2023-05-17T16:09:57.536Z,100288.53
2023-05-17T16:12:31.817Z,100296.53
2023-05-17T16:15:07.924Z,100309.72
2023-05-17T16:17:42.293Z,100307.91
2023-05-17T16:20:17.203Z,100307.59
2023-05-17T16:22:53.977Z,100310.69
2023-05-17T16:25:28.922Z,100322.78
2023-05-17T16:28:03.552Z,100320.12
2023-05-17T16:30:38.769Z,100320.34
2023-05-17T16:33:14.536Z,100331.84
2023-05-17T16:35:50.299Z,100336.28
2023-05-17T16:38:26.414Z,100325.63
2023-05-17T16:41:03.456Z,100326.72
2023-05-17T16:43:37.950Z,100336.34
2023-05-17T16:46:12.683Z,100350.50
2023-05-17T16:48:47.063Z,100349.63
2023-05-17T16:51:21.748Z,100341.50
2023-05-17T16:53:57.544Z,100338.34
2023-05-17T16:56:32.642Z,100358.69
2023-05-17T16:59:10.032Z,100342.94
2023-05-17T17:01:44.847Z,100342.06
2023-05-17T17:04:19.467Z,100340.09
2023-05-17T17:06:54.199Z,100340.69
2023-05-17T17:09:30.357Z,100347.12
2023-05-17T17:12:16.523Z,100344.06
2023-05-17T17:14:57.663Z,100355.06
2023-05-17T17:17:32.376Z,100359.19
2023-05-17T17:20:09.317Z,100356.31
2023-05-17T17:22:44.086Z,100359.91
2023-05-17T17:25:20.318Z,100361.59
2023-05-17T17:27:55.033Z,100374.03
2023-05-17T17:30:29.662Z,100367.00
2023-05-17T17:33:04.983Z,100383.63
2023-05-17T17:35:39.428Z,100370.50
2023-05-17T17:38:14.886Z,100370.16
2023-05-17T17:40:50.941Z,100375.50
2023-05-17T17:43:25.714Z,100386.97
2023-05-17T17:46:00.120Z,100377.84
2023-05-17T17:48:35.164Z,100389.41
2023-05-17T17:51:09.765Z,100388.03
2023-05-17T17:53:44.498Z,100387.88
2023-05-17T17:56:20.350Z,100384.22
2023-05-17T17:58:56.426Z,100389.44
2023-05-17T18:01:32.641Z,100400.03
2023-05-17T18:04:07.492Z,100402.81
2023-05-17T18:06:45.073Z,100401.91
2023-05-17T18:09:23.224Z,100387.84
2023-05-17T18:11:59.697Z,100395.75
2023-05-17T18:14:34.957Z,100398.06
2023-05-17T18:17:10.509Z,100398.81
2023-05-17T18:19:46.475Z,100410.28
2023-05-17T18:22:22.425Z,100416.66
2023-05-17T18:24:57.179Z,100420.94
2023-05-17T18:27:32.981Z,100426.31
2023-05-17T18:30:09.912Z,100422.66
2023-05-17T18:32:46.222Z,100435.47
2023-05-17T18:35:21.148Z,100441.78
2023-05-17T18:37:55.629Z,100434.81
2023-05-17T18:40:31.987Z,100427.47
2023-05-17T18:43:08.019Z,100426.25
2023-05-17T18:45:42.988Z,100419.25
2023-05-17T18:48:17.492Z,100423.66
2023-05-17T18:50:52.259Z,100419.56
2023-05-17T18:53:26.644Z,100424.97
2023-05-17T18:56:02.755Z,100429.72
2023-05-17T18:58:38.535Z,100430.78
2023-05-17T19:01:13.552Z,100433.44
2023-05-17T19:03:51.510Z,100429.31
2023-05-17T19:06:27.776Z,100429.78
2023-05-17T19:09:02.297Z,100433.81
2023-05-17T19:11:37.501Z,100434.66
2023-05-17T19:14:14.841Z,100448.25
2023-05-17T19:16:50.283Z,100458.94
2023-05-17T19:19:26.076Z,100459.94
2023-05-17T19:22:01.123Z,100469.97
2023-05-17T19:24:35.936Z,100470.59
2023-05-17T19:27:12.189Z,100469.34
2023-05-17T19:29:47.941Z,100463.38
2023-05-17T19:32:23.003Z,100467.53
2023-05-17T19:34:57.485Z,100459.81
2023-05-17T19:37:32.301Z,100460.69
2023-05-17T19:40:07.964Z,100471.81
2023-05-17T19:42:42.658Z,100472.44
2023-05-17T19:45:18.538Z,100474.94
2023-05-17T19:47:54.254Z,100474.03
2023-05-17T19:50:29.013Z,100473.50
2023-05-17T19:53:04.368Z,100480.22
2023-05-17T19:55:40.153Z,100482.59
2023-05-17T19:58:15.639Z,100478.84
2023-05-17T20:00:51.513Z,100479.16
2023-05-17T20:03:27.362Z,100484.75
2023-05-17T20:06:02.580Z,100461.44
2023-05-17T20:08:37.554Z,100460.19
2023-05-17T20:11:12.478Z,100453.81
2023-05-17T20:13:47.394Z,100461.28
2023-05-17T20:16:27.964Z,100472.34
2023-05-17T20:19:03.133Z,100475.91
2023-05-17T20:21:37.615Z,100473.75
2023-05-17T20:24:12.423Z,100472.75
2023-05-17T20:26:48.921Z,100474.66
2023-05-17T20:29:23.702Z,100473.41
2023-05-17T20:32:00.224Z,100480.91
2023-05-17T20:34:35.149Z,100482.81
2023-05-17T20:37:09.696Z,100474.87
2023-05-17T20:39:44.543Z,100484.47
2023-05-17T20:42:20.478Z,100480.31
2023-05-17T20:44:55.660Z,100481.34
2023-05-17T20:47:32.603Z,100491.31
2023-05-17T20:50:09.179Z,100504.66
2023-05-17T20:52:43.629Z,100508.00
2023-05-17T20:55:18.326Z,100506.13
2023-05-17T20:57:52.710Z,100497.78
2023-05-17T21:00:27.656Z,100488.31
2023-05-17T21:03:04.148Z,100504.44
2023-05-17T21:05:38.985Z,100506.28
2023-05-17T21:08:13.477Z,100505.13
2023-05-17T21:10:48.164Z,100505.44
2023-05-17T21:13:24.043Z,100514.13
2023-05-17T21:15:58.673Z,100507.38
2023-05-17T21:18:34.410Z,100507.22
2023-05-17T21:21:09.230Z,100506.72
2023-05-17T21:23:43.681Z,100513.62
2023-05-17T21:26:18.337Z,100509.66
2023-05-17T21:28:52.734Z,100516.44
2023-05-17T21:31:28.393Z,100520.53
2023-05-17T21:34:04.232Z,100523.34
2023-05-17T21:36:38.925Z,100530.75
2023-05-17T21:39:13.399Z,100529.41
2023-05-17T21:41:48.235Z,100528.44
2023-05-17T21:44:22.586Z,100525.53
2023-05-17T21:46:59.031Z,100520.78
2023-05-17T21:49:35.155Z,100519.75
2023-05-17T21:52:09.915Z,100523.34
2023-05-17T21:54:44.327Z,100527.19
2023-05-17T21:57:21.094Z,100525.19
2023-05-17T21:59:55.770Z,100516.69
